Time;durP1;ratioP1;P1;durP2;ratioP2;P2;SDS_P1;SDS_P2;PMS_P1;PMS_P2;Temp;Humidity;BMP_temperature;BMP_pressure;BME280_temperature;BME280_humidity;BME280_pressure;Samples;Min_cycle;Max_cycle;Signal;HPM_P1;HPM_P2
2023/10/14 00:00:39;;;;;;;6.80;5.43;;;;;;;;;;4935169;29;20511;-65
2023/10/14 00:03:18;;;;;;;7.27;4.77;;;;;;;;;;4935121;29;20447;-65
2023/10/14 00:05:46;;;;;;;12.57;5.03;;;;;;;;;;4935560;29;20425;-65
2023/10/14 00:08:13;;;;;;;5.73;3.90;;;;;;;;;;4935117;29;20421;-65
2023/10/14 00:10:43;;;;;;;4.70;4.30;;;;;;;;;;4935293;29;20765;-65
2023/10/14 00:13:11;;;;;;;5.63;4.50;;;;;;;;;;4934962;29;20424;-65
2023/10/14 00:15:39;;;;;;;6.30;5.00;;;;;;;;;;4949848;29;20478;-65
2023/10/14 00:18:07;;;;;;;8.20;4.80;;;;;;;;;;4934994;29;20509;-65
2023/10/14 00:20:35;;;;;;;8.50;4.60;;;;;;;;;;4935141;29;20413;-65
2023/10/14 00:23:01;;;;;;;8.43;5.50;;;;;;;;;;4935186;29;21019;-65
2023/10/14 00:25:27;;;;;;;6.30;5.20;;;;;;;;;;4935045;29;20483;-65
2023/10/14 00:27:53;;;;;;;5.33;4.70;;;;;;;;;;4935028;29;20424;-65
2023/10/14 00:30:26;;;;;;;8.80;5.40;;;;;;;;;;4934768;29;20441;-65
2023/10/14 00:32:52;;;;;;;6.97;5.27;;;;;;;;;;4934945;29;20428;-65
2023/10/14 00:35:19;;;;;;;5.50;4.87;;;;;;;;;;4949387;29;20451;-65
2023/10/14 00:37:45;;;;;;;6.83;4.80;;;;;;;;;;4935038;29;20414;-65
2023/10/14 00:40:12;;;;;;;6.87;5.03;;;;;;;;;;4934799;29;20451;-66
2023/10/14 00:42:44;;;;;;;5.80;5.30;;;;;;;;;;4934894;29;20425;-65
2023/10/14 00:45:11;;;;;;;8.60;5.63;;;;;;;;;;4934894;29;20420;-65
2023/10/14 00:47:44;;;;;;;6.50;5.40;;;;;;;;;;4934814;29;20436;-65
2023/10/14 00:50:33;;;;;;;6.37;5.70;;;;;;;;;;4952567;28;20458;-65
2023/10/14 00:53:00;;;;;;;6.17;5.57;;;;;;;;;;4938287;29;20799;-65
2023/10/14 00:55:35;;;;;;;5.73;5.20;;;;;;;;;;4938113;29;20462;-65
2023/10/14 00:58:01;;;;;;;15.10;6.17;;;;;;;;;;4938338;29;20482;-65
2023/10/14 01:00:35;;;;;;;9.87;5.97;;;;;;;;;;4937933;29;20579;-65
2023/10/14 01:03:09;;;;;;;6.60;5.60;;;;;;;;;;4937935;29;20966;-65
2023/10/14 01:05:38;;;;;;;8.97;5.83;;;;;;;;;;4937998;29;20432;-66
2023/10/14 01:08:11;;;;;;;6.80;5.50;;;;;;;;;;4938021;29;20421;-65
2023/10/14 01:10:41;;;;;;;10.43;5.63;;;;;;;;;;4937894;29;20447;-65
2023/10/14 01:13:09;;;;;;;7.70;5.80;;;;;;;;;;4952519;29;20447;-65
2023/10/14 01:15:42;;;;;;;5.77;5.23;;;;;;;;;;4937174;29;20963;-65
2023/10/14 01:18:10;;;;;;;6.30;5.70;;;;;;;;;;4937640;29;20487;-65
2023/10/14 01:20:40;;;;;;;7.57;5.43;;;;;;;;;;4937883;29;20446;-65
2023/10/14 01:23:17;;;;;;;9.80;5.33;;;;;;;;;;4937606;29;20830;-65
2023/10/14 01:25:52;;;;;;;10.60;6.20;;;;;;;;;;4937456;29;20451;-65
2023/10/14 01:28:21;;;;;;;6.13;5.63;;;;;;;;;;4937646;29;20836;-65
2023/10/14 01:30:53;;;;;;;6.40;5.33;;;;;;;;;;4937299;29;20429;-65
2023/10/14 01:33:25;;;;;;;18.60;6.70;;;;;;;;;;4937463;29;20454;-65
2023/10/14 01:35:54;;;;;;;8.07;5.57;;;;;;;;;;4937486;29;20582;-65
2023/10/14 01:38:24;;;;;;;9.50;5.70;;;;;;;;;;4937790;29;20438;-65
2023/10/14 01:40:52;;;;;;;13.87;6.03;;;;;;;;;;4937179;29;20449;-65
2023/10/14 01:43:23;;;;;;;13.63;5.87;;;;;;;;;;4936748;29;20420;-65
2023/10/14 01:48:25;;;;;;;6.90;5.90;;;;;;;;;;4937237;29;20427;-65
2023/10/14 01:50:54;;;;;;;5.73;5.23;;;;;;;;;;4937158;29;20494;-65
2023/10/14 01:53:23;;;;;;;13.80;6.23;;;;;;;;;;4951750;29;20425;-65
2023/10/14 01:55:53;;;;;;;6.63;5.97;;;;;;;;;;4937311;29;20565;-65
2023/10/14 01:58:23;;;;;;;6.43;5.83;;;;;;;;;;4936997;29;20424;-65
2023/10/14 02:00:56;;;;;;;8.50;6.27;;;;;;;;;;4936335;29;20423;-65
2023/10/14 02:03:22;;;;;;;10.67;5.73;;;;;;;;;;4936839;29;20455;-65
2023/10/14 02:05:51;;;;;;;6.87;6.00;;;;;;;;;;4936442;29;20447;-65
2023/10/14 02:08:21;;;;;;;7.03;6.17;;;;;;;;;;4936823;29;20428;-65
2023/10/14 02:10:50;;;;;;;10.27;6.73;;;;;;;;;;4951131;29;20477;-65
2023/10/14 02:13:16;;;;;;;10.80;5.90;;;;;;;;;;4951395;29;21062;-65
2023/10/14 02:15:50;;;;;;;13.73;6.43;;;;;;;;;;4936564;29;20479;-65
2023/10/14 02:18:21;;;;;;;7.47;6.00;;;;;;;;;;4936683;29;20533;-65
2023/10/14 02:20:56;;;;;;;7.30;6.00;;;;;;;;;;4936315;29;20479;-65
2023/10/14 02:23:26;;;;;;;10.20;6.90;;;;;;;;;;4936582;29;20399;-65
2023/10/14 02:25:56;;;;;;;13.10;6.60;;;;;;;;;;4936176;29;20813;-65
2023/10/14 02:28:22;;;;;;;8.63;6.57;;;;;;;;;;4936226;29;20500;-65
2023/10/14 02:30:51;;;;;;;8.17;6.20;;;;;;;;;;4936128;29;20478;-65
2023/10/14 02:33:19;;;;;;;6.70;6.17;;;;;;;;;;4935996;29;20803;-65
2023/10/14 02:35:47;;;;;;;8.17;6.83;;;;;;;;;;4950742;29;20510;-65
2023/10/14 02:38:17;;;;;;;12.43;6.43;;;;;;;;;;4936021;29;20426;-65
2023/10/14 02:40:43;;;;;;;9.00;7.17;;;;;;;;;;4936285;29;20445;-64
2023/10/14 02:43:15;;;;;;;10.30;7.50;;;;;;;;;;4936362;29;20424;-65
2023/10/14 02:45:45;;;;;;;9.63;7.47;;;;;;;;;;4936242;29;20488;-65
2023/10/14 02:48:18;;;;;;;12.83;7.50;;;;;;;;;;4935980;29;20422;-65
2023/10/14 02:50:50;;;;;;;10.27;7.37;;;;;;;;;;4935765;29;20454;-64
2023/10/14 02:53:23;;;;;;;12.93;7.30;;;;;;;;;;4935998;29;20437;-65
2023/10/14 02:55:52;;;;;;;10.33;8.00;;;;;;;;;;4936166;29;20489;-65
2023/10/14 02:58:20;;;;;;;8.63;7.57;;;;;;;;;;4936261;29;20504;-65
2023/10/14 03:00:49;;;;;;;18.33;7.37;;;;;;;;;;4935919;29;20528;-65
2023/10/14 03:03:15;;;;;;;12.13;6.97;;;;;;;;;;4936406;29;20473;-65
2023/10/14 03:05:53;;;;;;;10.73;7.90;;;;;;;;;;4937145;29;20487;-65
2023/10/14 03:08:24;;;;;;;15.17;7.33;;;;;;;;;;4936885;29;20420;-65
2023/10/14 03:10:59;;;;;;;8.67;7.60;;;;;;;;;;4935667;29;20486;-65
2023/10/14 03:13:25;;;;;;;13.90;6.93;;;;;;;;;;4935378;29;20409;-64
2023/10/14 03:15:52;;;;;;;9.70;7.83;;;;;;;;;;4944497;29;20550;-65
2023/10/14 03:18:19;;;;;;;9.07;8.00;;;;;;;;;;4954412;29;20426;-65
2023/10/14 03:20:59;;;;;;;11.53;7.30;;;;;;;;;;4954737;29;20489;-65
2023/10/14 03:23:26;;;;;;;15.23;7.83;;;;;;;;;;4954654;29;20423;-65
2023/10/14 03:25:53;;;;;;;20.00;6.97;;;;;;;;;;4955357;29;20446;-64
2023/10/14 03:28:27;;;;;;;10.13;7.37;;;;;;;;;;4954753;29;20453;-65
2023/10/14 03:30:56;;;;;;;13.57;7.80;;;;;;;;;;4954988;29;20446;-65
2023/10/14 03:33:23;;;;;;;14.07;7.93;;;;;;;;;;4954833;29;20812;-65
2023/10/14 03:36:05;;;;;;;11.70;7.17;;;;;;;;;;4954351;29;20480;-65
2023/10/14 03:41:18;;;;;;;18.33;7.80;;;;;;;;;;4954758;28;20448;-65
2023/10/14 03:46:16;;;;;;;8.57;7.67;;;;;;;;;;4954519;29;20490;-65
2023/10/14 03:48:48;;;;;;;8.30;7.50;;;;;;;;;;4954228;29;20421;-65
2023/10/14 03:51:24;;;;;;;11.27;7.00;;;;;;;;;;4954384;28;20444;-65
2023/10/14 03:54:08;;;;;;;10.83;7.50;;;;;;;;;;4954274;29;20420;-64
2023/10/14 03:56:34;;;;;;;7.90;7.30;;;;;;;;;;4954452;29;20481;-64
2023/10/14 03:59:01;;;;;;;15.30;8.00;;;;;;;;;;4954331;29;20910;-65
2023/10/14 04:04:18;;;;;;;10.30;7.80;;;;;;;;;;4954417;29;20504;-65
2023/10/14 04:09:39;;;;;;;10.40;8.17;;;;;;;;;;4954314;29;20411;-65
2023/10/14 04:12:08;;;;;;;7.83;7.03;;;;;;;;;;4954394;29;20571;-65
2023/10/14 04:14:37;;;;;;;12.03;7.80;;;;;;;;;;4954058;29;20415;-65
2023/10/14 04:17:20;;;;;;;21.97;7.90;;;;;;;;;;4954096;29;20962;-65
2023/10/14 04:19:48;;;;;;;14.00;7.37;;;;;;;;;;4954164;29;20436;-65
2023/10/14 04:24:50;;;;;;;20.67;7.40;;;;;;;;;;4957113;28;20780;-65
2023/10/14 04:30:11;;;;;;;16.03;7.10;;;;;;;;;;4958035;29;20400;-64
2023/10/14 04:35:32;;;;;;;14.63;7.60;;;;;;;;;;4957898;29;20421;-64
2023/10/14 04:38:02;;;;;;;10.53;6.63;;;;;;;;;;4957611;29;20415;-65
2023/10/14 04:42:59;;;;;;;16.30;6.37;;;;;;;;;;4957800;29;20494;-64
2023/10/14 04:45:31;;;;;;;10.77;6.70;;;;;;;;;;4957363;29;20435;-65
2023/10/14 04:47:58;;;;;;;14.77;6.53;;;;;;;;;;4957636;29;20423;-65
2023/10/14 04:50:24;;;;;;;15.30;6.80;;;;;;;;;;4957240;29;20427;-65
2023/10/14 04:52:50;;;;;;;15.30;7.10;;;;;;;;;;4957364;29;20431;-64
2023/10/14 05:00:41;;;;;;;25.63;7.17;;;;;;;;;;4957450;29;20482;-65
2023/10/14 05:03:09;;;;;;;13.53;7.27;;;;;;;;;;4957406;29;20431;-65
2023/10/14 05:05:38;;;;;;;18.53;7.23;;;;;;;;;;4957499;29;20412;-65
2023/10/14 05:08:05;;;;;;;16.63;7.70;;;;;;;;;;4957021;29;20440;-65
2023/10/14 05:10:31;;;;;;;15.27;7.33;;;;;;;;;;4957305;29;20424;-65
2023/10/14 05:12:57;;;;;;;13.73;7.03;;;;;;;;;;4956937;29;20400;-65
2023/10/14 05:15:27;;;;;;;13.20;7.10;;;;;;;;;;4956917;29;20176;-65
2023/10/14 05:18:00;;;;;;;16.03;6.43;;;;;;;;;;4957270;29;20445;-65
2023/10/14 05:23:11;;;;;;;14.53;6.93;;;;;;;;;;4956956;29;20482;-65
2023/10/14 05:25:40;;;;;;;14.40;7.87;;;;;;;;;;4955298;29;20424;-65
2023/10/14 05:28:10;;;;;;;11.23;6.63;;;;;;;;;;4956853;29;20875;-65
2023/10/14 05:30:38;;;;;;;13.20;6.37;;;;;;;;;;4956483;29;20860;-64
2023/10/14 05:33:08;;;;;;;15.23;6.80;;;;;;;;;;4956813;29;20418;-64
2023/10/14 05:35:38;;;;;;;11.67;6.63;;;;;;;;;;4955547;28;20450;-64
2023/10/14 05:38:09;;;;;;;10.13;6.10;;;;;;;;;;4956721;29;20892;-64
2023/10/14 05:40:36;;;;;;;11.00;6.00;;;;;;;;;;4956528;29;20938;-64
2023/10/14 05:43:02;;;;;;;12.67;7.50;;;;;;;;;;4956550;29;20475;-63
2023/10/14 05:45:31;;;;;;;16.73;6.13;;;;;;;;;;4955287;29;20440;-63
2023/10/14 05:47:57;;;;;;;10.67;6.37;;;;;;;;;;4956032;29;20448;-63
2023/10/14 05:50:24;;;;;;;11.07;6.77;;;;;;;;;;4955715;29;20468;-63
2023/10/14 05:52:50;;;;;;;12.60;6.60;;;;;;;;;;4955659;29;20943;-63
2023/10/14 05:55:25;;;;;;;7.47;6.10;;;;;;;;;;4955770;28;20468;-63
2023/10/14 05:57:53;;;;;;;12.77;6.73;;;;;;;;;;4956035;28;20629;-63
2023/10/14 06:00:21;;;;;;;10.70;6.37;;;;;;;;;;4956170;28;20445;-63
2023/10/14 06:02:48;;;;;;;14.73;7.20;;;;;;;;;;4955921;28;20452;-63
2023/10/14 06:05:16;;;;;;;11.67;5.83;;;;;;;;;;4956117;28;20427;-63
2023/10/14 06:07:48;;;;;;;10.80;5.83;;;;;;;;;;4955735;28;20456;-63
2023/10/14 06:10:20;;;;;;;13.53;6.00;;;;;;;;;;4954913;28;20446;-63
2023/10/14 06:12:46;;;;;;;10.43;6.20;;;;;;;;;;4955837;28;20788;-64
2023/10/14 06:15:17;;;;;;;8.37;6.13;;;;;;;;;;4955936;28;20438;-62
2023/10/14 06:17:44;;;;;;;9.80;7.00;;;;;;;;;;4959994;28;20898;-62
2023/10/14 06:20:13;;;;;;;12.30;6.33;;;;;;;;;;4956312;28;20906;-62
2023/10/14 06:22:40;;;;;;;10.97;6.30;;;;;;;;;;4955738;28;20447;-62
2023/10/14 06:25:06;;;;;;;9.47;6.10;;;;;;;;;;4955689;28;20782;-63
2023/10/14 06:27:32;;;;;;;12.00;5.67;;;;;;;;;;4955601;28;20475;-62
2023/10/14 06:30:01;;;;;;;17.00;6.90;;;;;;;;;;4955391;28;20445;-62
2023/10/14 06:32:29;;;;;;;11.77;6.67;;;;;;;;;;4955381;28;20444;-61
2023/10/14 06:35:02;;;;;;;16.03;6.73;;;;;;;;;;4955413;28;20475;-60
2023/10/14 06:37:28;;;;;;;16.10;6.87;;;;;;;;;;4955294;28;20512;-60
2023/10/14 06:39:57;;;;;;;10.33;6.53;;;;;;;;;;4955198;28;20430;-59
2023/10/14 06:42:22;;;;;;;17.67;7.10;;;;;;;;;;4955406;28;20437;-59
2023/10/14 06:44:51;;;;;;;16.00;7.17;;;;;;;;;;4955280;28;20414;-59
2023/10/14 06:47:18;;;;;;;13.93;6.67;;;;;;;;;;4955225;28;20936;-59
2023/10/14 06:49:44;;;;;;;14.57;6.30;;;;;;;;;;4955198;28;20428;-60
2023/10/14 06:52:14;;;;;;;17.20;6.77;;;;;;;;;;4955348;28;20436;-60
2023/10/14 06:54:41;;;;;;;19.03;7.10;;;;;;;;;;4955070;28;20542;-60
2023/10/14 06:57:07;;;;;;;11.53;7.20;;;;;;;;;;4954626;28;20460;-60
2023/10/14 06:59:37;;;;;;;12.37;6.83;;;;;;;;;;4954896;28;20448;-60
2023/10/14 07:02:03;;;;;;;19.90;7.73;;;;;;;;;;4954886;28;20496;-60
2023/10/14 07:04:29;;;;;;;10.70;6.80;;;;;;;;;;4954458;28;20803;-59
2023/10/14 07:06:58;;;;;;;10.63;6.50;;;;;;;;;;4954679;28;20500;-60
2023/10/14 07:09:27;;;;;;;12.40;6.50;;;;;;;;;;4954741;28;20444;-60
2023/10/14 07:11:57;;;;;;;14.43;6.80;;;;;;;;;;4954655;28;20436;-60
2023/10/14 07:14:23;;;;;;;12.73;6.20;;;;;;;;;;4954886;28;20421;-60
2023/10/14 07:16:50;;;;;;;14.93;6.77;;;;;;;;;;4954663;28;20857;-60
2023/10/14 07:19:17;;;;;;;9.80;6.27;;;;;;;;;;4954750;28;20420;-60
2023/10/14 07:21:43;;;;;;;11.77;7.27;;;;;;;;;;4954636;28;20475;-60
2023/10/14 07:24:14;;;;;;;11.70;6.20;;;;;;;;;;4954809;28;20709;-60
2023/10/14 07:26:40;;;;;;;13.83;6.20;;;;;;;;;;4954482;28;20424;-60
2023/10/14 07:29:06;;;;;;;15.70;6.70;;;;;;;;;;4954423;28;20468;-60
2023/10/14 07:31:36;;;;;;;11.33;6.67;;;;;;;;;;4954836;28;20889;-60
2023/10/14 07:34:08;;;;;;;9.80;5.57;;;;;;;;;;4953322;28;20871;-60
2023/10/14 07:36:35;;;;;;;15.73;6.90;;;;;;;;;;4954675;28;20599;-60
2023/10/14 07:39:12;;;;;;;10.63;6.23;;;;;;;;;;4954135;28;20445;-61
2023/10/14 07:41:50;;;;;;;12.20;7.23;;;;;;;;;;4954247;28;20922;-60
2023/10/14 07:44:17;;;;;;;8.40;5.90;;;;;;;;;;4954509;28;20444;-61
2023/10/14 07:46:45;;;;;;;15.10;6.30;;;;;;;;;;4954534;28;20456;-62
2023/10/14 07:49:11;;;;;;;11.93;5.70;;;;;;;;;;4953757;28;20456;-61
2023/10/14 07:51:37;;;;;;;10.10;6.07;;;;;;;;;;4954405;28;20449;-59
2023/10/14 07:54:03;;;;;;;11.93;6.00;;;;;;;;;;4952738;28;20545;-59
2023/10/14 07:56:29;;;;;;;19.80;5.70;;;;;;;;;;4954296;28;20475;-60
2023/10/14 07:58:56;;;;;;;12.20;6.27;;;;;;;;;;4955506;28;20439;-60
2023/10/14 08:01:26;;;;;;;16.03;5.80;;;;;;;;;;4957943;28;20414;-60
2023/10/14 08:03:56;;;;;;;10.90;6.10;;;;;;;;;;4958067;28;20461;-60
2023/10/14 08:06:22;;;;;;;14.77;5.37;;;;;;;;;;4957957;28;20421;-60
2023/10/14 08:08:50;;;;;;;13.50;6.83;;;;;;;;;;4957997;28;20477;-60
2023/10/14 08:11:16;;;;;;;14.57;8.10;;;;;;;;;;4958458;28;20415;-60
2023/10/14 08:13:43;;;;;;;6.47;5.47;;;;;;;;;;4958025;28;20535;-60
2023/10/14 08:16:11;;;;;;;8.97;5.70;;;;;;;;;;4957957;28;20901;-60
2023/10/14 08:18:37;;;;;;;7.97;5.57;;;;;;;;;;4958148;28;20575;-60
2023/10/14 08:21:03;;;;;;;24.13;9.90;;;;;;;;;;4957959;28;20919;-60
2023/10/14 08:23:29;;;;;;;7.40;4.70;;;;;;;;;;4957907;28;20439;-59
2023/10/14 08:25:57;;;;;;;10.23;6.50;;;;;;;;;;4957926;28;20503;-60
2023/10/14 08:28:23;;;;;;;8.53;5.77;;;;;;;;;;4957818;28;20446;-60
2023/10/14 08:30:50;;;;;;;10.03;5.60;;;;;;;;;;4957258;28;20427;-59
2023/10/14 08:33:18;;;;;;;14.43;6.50;;;;;;;;;;4957439;28;20897;-60
2023/10/14 08:35:44;;;;;;;9.80;5.67;;;;;;;;;;4957740;28;20423;-60
2023/10/14 08:38:12;;;;;;;11.10;6.00;;;;;;;;;;4957489;28;20434;-60
2023/10/14 08:40:42;;;;;;;10.07;6.37;;;;;;;;;;4957723;28;20426;-61
2023/10/14 08:43:10;;;;;;;13.20;5.73;;;;;;;;;;4956961;28;20895;-60
2023/10/14 08:45:41;;;;;;;15.63;6.57;;;;;;;;;;4957123;28;20940;-61
2023/10/14 08:48:11;;;;;;;12.47;6.80;;;;;;;;;;4957071;28;20418;-61
2023/10/14 08:50:39;;;;;;;13.17;6.53;;;;;;;;;;4957222;28;20444;-61
2023/10/14 08:53:06;;;;;;;14.63;7.23;;;;;;;;;;4957312;28;20424;-61
2023/10/14 08:55:36;;;;;;;14.07;7.70;;;;;;;;;;4957142;28;20424;-61
2023/10/14 08:58:05;;;;;;;12.33;6.73;;;;;;;;;;4957376;28;20500;-61
2023/10/14 09:00:35;;;;;;;14.50;7.23;;;;;;;;;;4957279;28;20885;-61
2023/10/14 09:03:02;;;;;;;11.67;7.30;;;;;;;;;;4957086;28;20429;-60
2023/10/14 09:05:30;;;;;;;15.97;7.60;;;;;;;;;;4956930;28;20414;-61
2023/10/14 09:08:02;;;;;;;16.60;7.70;;;;;;;;;;4957213;28;20418;-61
2023/10/14 09:10:28;;;;;;;11.20;8.43;;;;;;;;;;4955514;28;20437;-60
2023/10/14 09:12:57;;;;;;;12.20;7.50;;;;;;;;;;4956792;28;20425;-61
2023/10/14 09:15:25;;;;;;;11.20;8.03;;;;;;;;;;4956687;28;20500;-61
2023/10/14 09:17:55;;;;;;;12.77;7.90;;;;;;;;;;4956835;28;20475;-60
2023/10/14 09:20:28;;;;;;;15.07;8.10;;;;;;;;;;4956580;28;20523;-61
2023/10/14 09:23:17;;;;;;;16.83;7.80;;;;;;;;;;4956595;28;20417;-61
2023/10/14 09:25:43;;;;;;;14.90;8.60;;;;;;;;;;4956924;28;20408;-61
2023/10/14 09:28:09;;;;;;;13.30;7.23;;;;;;;;;;4956701;28;20420;-61
2023/10/14 09:30:44;;;;;;;11.90;7.20;;;;;;;;;;4955548;28;20500;-61
2023/10/14 09:33:10;;;;;;;14.93;7.50;;;;;;;;;;4957055;28;20423;-60
2023/10/14 09:35:36;;;;;;;14.90;7.87;;;;;;;;;;4956379;28;20448;-61
2023/10/14 09:38:05;;;;;;;22.03;8.50;;;;;;;;;;4956589;28;20422;-61
2023/10/14 09:40:33;;;;;;;14.03;8.07;;;;;;;;;;4956414;28;20421;-61
2023/10/14 09:43:00;;;;;;;16.70;7.80;;;;;;;;;;4956523;28;20418;-61
2023/10/14 09:45:26;;;;;;;12.07;8.30;;;;;;;;;;4955955;28;20822;-61
2023/10/14 09:47:52;;;;;;;18.13;8.90;;;;;;;;;;4956231;28;20452;-60
2023/10/14 09:50:21;;;;;;;17.00;8.90;;;;;;;;;;4956292;28;20428;-61
2023/10/14 09:52:52;;;;;;;10.73;8.53;;;;;;;;;;4956457;28;20511;-60
2023/10/14 09:55:20;;;;;;;14.67;9.20;;;;;;;;;;4956356;28;20449;-61
2023/10/14 09:57:47;;;;;;;14.97;9.00;;;;;;;;;;4955847;28;20950;-61
2023/10/14 10:00:16;;;;;;;12.77;8.47;;;;;;;;;;4956009;28;20441;-61
2023/10/14 10:02:43;;;;;;;18.67;8.33;;;;;;;;;;4955970;28;20460;-61
2023/10/14 10:05:12;;;;;;;12.13;8.50;;;;;;;;;;4955572;28;20414;-61
2023/10/14 10:08:07;;;;;;;8.80;6.30;;;;;;;;;;4955960;28;20508;-61
2023/10/14 10:10:33;;;;;;;12.10;7.70;;;;;;;;;;4955866;28;20450;-61
2023/10/14 10:13:00;;;;;;;16.40;8.00;;;;;;;;;;4956178;28;20422;-61
2023/10/14 10:15:29;;;;;;;11.70;7.37;;;;;;;;;;4955889;28;20457;-61
2023/10/14 10:17:59;;;;;;;11.93;7.73;;;;;;;;;;4956099;28;20488;-61
2023/10/14 10:20:35;;;;;;;12.63;7.70;;;;;;;;;;4955689;28;20446;-61
2023/10/14 10:23:01;;;;;;;9.43;7.03;;;;;;;;;;4955597;28;20421;-61
2023/10/14 10:25:36;;;;;;;12.33;6.10;;;;;;;;;;4955660;28;20561;-61
2023/10/14 10:28:40;;;;;;;9.17;6.43;;;;;;;;;;4955972;28;20438;-62
2023/10/14 10:31:20;;;;;;;10.07;6.47;;;;;;;;;;4896566;29;20448;-62
2023/10/14 10:33:56;;;;;;;6.60;6.00;;;;;;;;;;4950105;28;20425;-61
2023/10/14 10:36:25;;;;;;;6.43;5.07;;;;;;;;;;4955432;28;20560;-62
2023/10/14 10:38:54;;;;;;;8.70;5.40;;;;;;;;;;4955526;28;20904;-61
2023/10/14 10:41:23;;;;;;;5.97;4.60;;;;;;;;;;4955330;28;20502;-62
2023/10/14 10:43:50;;;;;;;9.27;4.57;;;;;;;;;;4955579;28;20402;-61
2023/10/14 10:46:39;;;;;;;5.80;3.93;;;;;;;;;;4955364;28;20436;-62
2023/10/14 10:49:06;;;;;;;6.00;3.27;;;;;;;;;;4955282;28;20419;-62
2023/10/14 10:51:33;;;;;;;1.87;1.50;;;;;;;;;;4954739;28;20421;-61
2023/10/14 10:53:59;;;;;;;5.50;5.10;;;;;;;;;;4955551;28;20433;-60
2023/10/14 10:56:35;;;;;;;8.50;7.00;;;;;;;;;;4954877;28;20479;-60
2023/10/14 10:59:04;;;;;;;1.03;0.53;;;;;;;;;;4955431;28;20417;-61
2023/10/14 11:01:31;;;;;;;9.00;7.50;;;;;;;;;;4955274;28;20424;-61
2023/10/14 11:04:08;;;;;;;22.70;6.87;;;;;;;;;;4955702;28;20469;-60
2023/10/14 11:06:34;;;;;;;6.00;0.80;;;;;;;;;;4955225;28;20431;-60
2023/10/14 11:09:01;;;;;;;0.83;0.60;;;;;;;;;;4955211;28;20436;-60
2023/10/14 11:11:34;;;;;;;0.43;0.40;;;;;;;;;;4953978;28;20424;-60
2023/10/14 11:14:14;;;;;;;0.60;0.60;;;;;;;;;;4955028;28;20426;-60
2023/10/14 11:16:44;;;;;;;2.20;0.60;;;;;;;;;;4955003;28;20475;-61
2023/10/14 11:19:10;;;;;;;1.67;0.63;;;;;;;;;;4954881;28;20423;-60
2023/10/14 11:21:37;;;;;;;0.50;0.50;;;;;;;;;;4954808;28;20888;-60
2023/10/14 11:24:04;;;;;;;0.60;0.60;;;;;;;;;;4954819;28;20419;-60
2023/10/14 11:26:30;;;;;;;1.20;1.20;;;;;;;;;;4954873;28;20436;-60
2023/10/14 11:28:59;;;;;;;0.60;0.60;;;;;;;;;;4954588;28;20475;-60
2023/10/14 11:31:25;;;;;;;0.70;0.60;;;;;;;;;;4954870;28;20446;-60
2023/10/14 11:33:55;;;;;;;0.50;0.50;;;;;;;;;;4953850;28;20778;-59
2023/10/14 11:36:25;;;;;;;1.03;1.00;;;;;;;;;;4954627;28;20513;-60
2023/10/14 11:38:50;;;;;;;1.43;0.60;;;;;;;;;;4954652;28;20446;-60
2023/10/14 11:41:20;;;;;;;1.13;0.60;;;;;;;;;;4954636;28;20919;-60
2023/10/14 11:43:46;;;;;;;11.63;0.70;;;;;;;;;;4954476;28;20480;-60
2023/10/14 11:46:13;;;;;;;0.80;0.80;;;;;;;;;;4954838;28;20485;-60
2023/10/14 11:48:39;;;;;;;2.13;1.93;;;;;;;;;;4954391;28;20422;-60
2023/10/14 11:51:11;;;;;;;0.63;0.63;;;;;;;;;;4954237;28;20446;-60
2023/10/14 11:53:43;;;;;;;0.40;0.40;;;;;;;;;;4954776;28;20452;-60
2023/10/14 11:56:13;;;;;;;0.53;0.53;;;;;;;;;;4954333;28;20469;-61
2023/10/14 11:58:42;;;;;;;0.40;0.40;;;;;;;;;;4954159;28;20430;-61
2023/10/14 12:01:12;;;;;;;4.57;0.50;;;;;;;;;;4954331;28;20470;-60
2023/10/14 12:03:40;;;;;;;0.53;0.53;;;;;;;;;;4954439;28;20822;-60
2023/10/14 12:06:12;;;;;;;0.67;0.67;;;;;;;;;;4954325;28;20929;-60
2023/10/14 12:08:42;;;;;;;0.83;0.40;;;;;;;;;;4954307;28;20631;-61
2023/10/14 12:11:14;;;;;;;1.90;0.60;;;;;;;;;;4954227;28;20495;-61
2023/10/14 12:13:41;;;;;;;1.90;0.50;;;;;;;;;;4954301;28;20435;-61
2023/10/14 12:16:09;;;;;;;2.77;0.90;;;;;;;;;;4954026;28;20814;-61
2023/10/14 12:18:36;;;;;;;0.60;0.60;;;;;;;;;;4954263;28;20790;-61
2023/10/14 12:21:05;;;;;;;0.93;0.93;;;;;;;;;;4954092;28;20470;-61
2023/10/14 12:23:33;;;;;;;1.70;0.70;;;;;;;;;;4954096;28;20853;-61
2023/10/14 12:26:00;;;;;;;0.60;0.60;;;;;;;;;;4954075;28;20497;-61
2023/10/14 12:28:26;;;;;;;0.70;0.70;;;;;;;;;;4954218;28;20953;-60
2023/10/14 12:30:56;;;;;;;0.60;0.60;;;;;;;;;;4953950;28;20442;-60
2023/10/14 12:33:23;;;;;;;0.90;0.70;;;;;;;;;;4953980;28;20416;-60
2023/10/14 12:35:52;;;;;;;0.60;0.60;;;;;;;;;;4953953;28;20415;-61
2023/10/14 12:38:22;;;;;;;1.23;0.60;;;;;;;;;;4954391;28;20479;-61
2023/10/14 12:40:49;;;;;;;1.00;0.67;;;;;;;;;;4954031;28;20457;-61
2023/10/14 12:43:27;;;;;;;0.70;0.70;;;;;;;;;;4954106;28;20407;-61
2023/10/14 12:46:02;;;;;;;8.27;2.83;;;;;;;;;;4956803;28;20810;-61
2023/10/14 12:48:28;;;;;;;2.90;1.37;;;;;;;;;;4957632;28;20446;-61
2023/10/14 12:50:54;;;;;;;1.53;0.40;;;;;;;;;;4957527;28;20439;-61
2023/10/14 12:53:20;;;;;;;0.50;0.50;;;;;;;;;;4957482;28;20425;-61
2023/10/14 12:55:49;;;;;;;0.57;0.57;;;;;;;;;;4957107;28;20486;-60
2023/10/14 12:58:18;;;;;;;3.17;0.70;;;;;;;;;;4957242;28;20418;-61
2023/10/14 13:00:44;;;;;;;1.37;0.70;;;;;;;;;;4957462;28;20400;-61
2023/10/14 13:03:10;;;;;;;0.60;0.60;;;;;;;;;;4957161;28;20890;-61
2023/10/14 13:05:37;;;;;;;2.93;0.80;;;;;;;;;;4957093;28;20421;-61
2023/10/14 13:08:06;;;;;;;1.17;0.67;;;;;;;;;;4957173;28;20497;-61
2023/10/14 13:10:36;;;;;;;1.00;0.50;;;;;;;;;;4957029;28;20953;-61
2023/10/14 13:13:02;;;;;;;1.67;0.77;;;;;;;;;;4957271;28;20778;-61
2023/10/14 13:15:29;;;;;;;2.10;0.90;;;;;;;;;;4956885;28;20506;-60
2023/10/14 13:17:58;;;;;;;1.10;1.10;;;;;;;;;;4957006;28;21057;-61
2023/10/14 13:20:28;;;;;;;0.70;0.70;;;;;;;;;;4955696;28;20537;-61
2023/10/14 13:23:04;;;;;;;1.33;1.33;;;;;;;;;;4956790;28;20414;-61
2023/10/14 13:25:36;;;;;;;2.00;1.10;;;;;;;;;;4956742;28;20442;-61
2023/10/14 13:28:02;;;;;;;1.53;1.17;;;;;;;;;;4956965;29;20403;-61
2023/10/14 13:30:29;;;;;;;0.80;0.80;;;;;;;;;;4956809;28;20423;-61
2023/10/14 13:32:55;;;;;;;0.77;0.77;;;;;;;;;;4956523;28;20423;-61
2023/10/14 13:35:22;;;;;;;12.00;10.90;;;;;;;;;;4956670;28;20419;-61
2023/10/14 13:37:48;;;;;;;6.10;5.60;;;;;;;;;;4956405;28;20471;-61
2023/10/14 13:40:21;;;;;;;4.13;3.93;;;;;;;;;;4956541;28;20412;-61
2023/10/14 13:42:50;;;;;;;2.10;2.10;;;;;;;;;;4956366;28;20807;-61
2023/10/14 13:45:17;;;;;;;6.80;6.20;;;;;;;;;;4956559;28;20431;-61
2023/10/14 13:47:48;;;;;;;4.60;4.30;;;;;;;;;;4956535;28;20443;-61
2023/10/14 13:50:20;;;;;;;10.77;5.80;;;;;;;;;;4955112;28;20435;-61
2023/10/14 13:52:51;;;;;;;2.13;2.00;;;;;;;;;;4956170;28;20523;-61
2023/10/14 13:55:18;;;;;;;1.70;1.70;;;;;;;;;;4956184;28;20435;-61
2023/10/14 13:57:47;;;;;;;2.10;1.10;;;;;;;;;;4955455;28;20479;-61
2023/10/14 14:00:35;;;;;;;6.60;6.03;;;;;;;;;;4956184;28;20412;-61
2023/10/14 14:03:03;;;;;;;2.73;2.50;;;;;;;;;;4955867;28;20472;-65
2023/10/14 14:05:30;;;;;;;2.20;2.00;;;;;;;;;;4956023;28;20430;-61
2023/10/14 14:07:55;;;;;;;2.10;0.90;;;;;;;;;;4955392;28;20482;-61
2023/10/14 14:10:22;;;;;;;1.60;1.50;;;;;;;;;;4956146;28;20454;-61
2023/10/14 14:12:48;;;;;;;1.27;1.27;;;;;;;;;;4955766;28;20952;-61
2023/10/14 14:15:14;;;;;;;1.20;1.20;;;;;;;;;;4955503;28;20507;-61
2023/10/14 14:17:41;;;;;;;3.43;1.60;;;;;;;;;;4955759;28;20479;-61
2023/10/14 14:20:07;;;;;;;58.13;34.40;;;;;;;;;;4955892;28;20921;-61
2023/10/14 14:22:36;;;;;;;3.20;2.90;;;;;;;;;;4955564;28;20505;-60
2023/10/14 14:25:02;;;;;;;7.50;4.40;;;;;;;;;;4955615;28;20411;-60
2023/10/14 14:27:28;;;;;;;10.37;8.40;;;;;;;;;;4955577;28;20415;-60
2023/10/14 14:29:55;;;;;;;12.60;7.23;;;;;;;;;;4955587;28;20431;-60
2023/10/14 14:32:22;;;;;;;73.60;43.40;;;;;;;;;;4955719;28;20438;-60
2023/10/14 14:34:48;;;;;;;22.43;12.30;;;;;;;;;;4955591;28;20425;-60
2023/10/14 14:37:17;;;;;;;6.67;2.90;;;;;;;;;;4955163;28;20470;-60
2023/10/14 14:39:43;;;;;;;2.50;2.30;;;;;;;;;;4955181;28;20418;-61
2023/10/14 14:42:10;;;;;;;2.00;1.90;;;;;;;;;;4954176;28;20462;-61
2023/10/14 14:44:38;;;;;;;2.23;2.03;;;;;;;;;;4955237;28;20453;-61
2023/10/14 14:47:05;;;;;;;4.10;3.73;;;;;;;;;;4954899;28;20959;-61
2023/10/14 14:49:32;;;;;;;2.33;2.23;;;;;;;;;;4955476;28;20411;-61
2023/10/14 14:52:01;;;;;;;4.40;2.60;;;;;;;;;;4955182;28;20421;-62
2023/10/14 14:54:29;;;;;;;2.27;2.07;;;;;;;;;;4955519;28;20418;-62
2023/10/14 14:56:55;;;;;;;2.40;2.30;;;;;;;;;;4955151;28;20467;-61
2023/10/14 14:59:21;;;;;;;2.20;2.10;;;;;;;;;;4954796;28;20425;-61
2023/10/14 15:01:48;;;;;;;2.70;2.53;;;;;;;;;;4955036;28;20453;-61
2023/10/14 15:04:16;;;;;;;4.40;2.00;;;;;;;;;;4955123;28;20462;-61
2023/10/14 15:06:42;;;;;;;3.70;2.13;;;;;;;;;;4954937;28;20425;-60
2023/10/14 15:09:14;;;;;;;3.47;2.00;;;;;;;;;;4954799;28;20663;-61
2023/10/14 15:11:40;;;;;;;2.00;1.90;;;;;;;;;;4954981;28;20422;-61
2023/10/14 15:14:06;;;;;;;2.20;2.10;;;;;;;;;;4955031;28;20423;-61
2023/10/14 15:16:32;;;;;;;4.67;4.23;;;;;;;;;;4954699;28;20480;-61
2023/10/14 15:19:01;;;;;;;4.63;4.33;;;;;;;;;;4954684;28;20421;-62